Time;durP1;ratioP1;P1;durP2;ratioP2;P2;SDS_P1;SDS_P2;PMS_P1;PMS_P2;Temp;Humidity;BMP_temperature;BMP_pressure;BME280_temperature;BME280_humidity;BME280_pressure;Samples;Min_cycle;Max_cycle;Signal;HPM_P1;HPM_P2
2022/10/31 00:01:58;;;;;;;7.03;3.90;;;17.30;74.70;;;;;;5030988;28;20418;-72
2022/10/31 00:04:24;;;;;;;5.72;3.78;;;17.40;74.60;;;;;;5031464;28;20063;-72
2022/10/31 00:06:52;;;;;;;5.82;3.97;;;17.40;74.50;;;;;;5032315;28;20282;-72
2022/10/31 00:09:19;;;;;;;5.47;3.70;;;17.40;74.60;;;;;;5030368;28;20063;-72
2022/10/31 00:11:46;;;;;;;5.97;3.80;;;17.40;74.60;;;;;;5011318;28;20046;-72
2022/10/31 00:14:13;;;;;;;5.95;3.50;;;17.40;74.60;;;;;;5012724;28;20050;-72
2022/10/31 00:16:40;;;;;;;5.70;3.72;;;17.40;74.60;;;;;;5012668;28;20045;-72
2022/10/31 00:19:07;;;;;;;5.22;3.60;;;17.40;74.60;;;;;;5027774;28;20058;-72
2022/10/31 00:21:34;;;;;;;5.68;3.67;;;17.50;76.40;;;;;;5011441;28;20049;-72
2022/10/31 00:24:02;;;;;;;5.18;3.83;;;17.40;74.60;;;;;;5013741;28;20054;-72
2022/10/31 00:26:29;;;;;;;5.72;3.80;;;17.40;74.50;;;;;;5031438;28;20406;-72
2022/10/31 00:28:55;;;;;;;5.40;3.63;;;17.30;74.50;;;;;;5030805;28;20053;-72
2022/10/31 00:31:22;;;;;;;4.53;3.40;;;17.30;74.50;;;;;;5030755;28;20061;-72
2022/10/31 00:33:49;;;;;;;5.05;3.50;;;17.30;74.50;;;;;;5031057;28;20067;-72
2022/10/31 00:36:17;;;;;;;6.88;3.78;;;17.30;74.50;;;;;;5031435;28;20388;-72
2022/10/31 00:38:43;;;;;;;4.63;3.45;;;17.30;74.50;;;;;;5026066;28;20056;-72
2022/10/31 00:41:11;;;;;;;5.00;3.63;;;17.30;74.50;;;;;;5027679;28;20136;-72
2022/10/31 00:43:38;;;;;;;5.43;3.55;;;17.30;74.50;;;;;;5011047;28;20057;-72
2022/10/31 00:46:05;;;;;;;5.65;3.45;;;17.30;74.50;;;;;;5011113;28;20056;-72
2022/10/31 00:48:32;;;;;;;5.30;3.78;;;17.30;74.50;;;;;;5011242;28;20084;-72
2022/10/31 00:50:58;;;;;;;5.25;3.72;;;17.30;74.50;;;;;;5010852;28;20049;-72
2022/10/31 00:53:25;;;;;;;5.55;3.47;;;17.30;74.50;;;;;;5027689;28;20065;-72
2022/10/31 00:55:52;;;;;;;5.07;3.65;;;17.30;74.50;;;;;;5027445;28;20057;-72
2022/10/31 00:58:20;;;;;;;5.78;3.17;;;17.30;74.50;;;;;;5027804;28;20480;-72
2022/10/31 01:00:50;;;;;;;4.32;3.22;;;17.30;74.50;;;;;;5010486;28;20052;-72
2022/10/31 01:03:17;;;;;;;5.40;3.30;;;17.30;74.40;;;;;;5027430;28;20065;-72
2022/10/31 01:05:44;;;;;;;4.82;3.45;;;17.30;74.50;;;;;;5011098;28;20050;-73
2022/10/31 01:08:10;;;;;;;4.47;3.40;;;17.30;74.40;;;;;;5012136;28;20403;-72
2022/10/31 01:10:37;;;;;;;4.75;3.42;;;17.30;74.50;;;;;;5020461;28;20060;-72
2022/10/31 01:13:04;;;;;;;5.70;3.30;;;17.30;74.40;;;;;;5030687;28;20052;-72
2022/10/31 01:15:32;;;;;;;5.32;3.30;;;17.20;74.40;;;;;;5030503;28;20057;-72
2022/10/31 01:17:58;;;;;;;6.40;3.53;;;17.30;74.50;;;;;;5031850;28;20049;-72
2022/10/31 01:20:25;;;;;;;4.25;3.20;;;17.20;74.40;;;;;;5030369;28;20053;-72
2022/10/31 01:22:52;;;;;;;4.57;3.25;;;17.20;74.40;;;;;;5030405;28;20054;-72
2022/10/31 01:25:18;;;;;;;4.45;3.30;;;17.20;74.40;;;;;;5020280;28;20418;-72
2022/10/31 01:27:45;;;;;;;4.22;3.03;;;17.20;74.40;;;;;;5038510;28;20503;-72
2022/10/31 01:30:12;;;;;;;4.35;3.10;;;17.20;74.40;;;;;;5010666;28;20087;-72
2022/10/31 01:32:40;;;;;;;5.32;3.08;;;17.20;74.40;;;;;;5010327;28;20053;-72
2022/10/31 01:35:07;;;;;;;5.30;3.17;;;17.20;74.40;;;;;;5023856;28;20057;-72
2022/10/31 01:37:34;;;;;;;4.97;3.28;;;17.30;74.50;;;;;;5030444;28;20486;-72
2022/10/31 01:40:01;;;;;;;4.65;3.13;;;17.20;74.50;;;;;;5030843;28;20056;-73
2022/10/31 01:42:27;;;;;;;5.25;3.10;;;17.20;74.40;;;;;;5030254;28;20059;-72
2022/10/31 01:44:57;;;;;;;4.60;3.13;;;17.20;74.40;;;;;;5030469;28;20057;-72
2022/10/31 01:47:30;;;;;;;5.70;3.05;;;17.20;74.40;;;;;;5031537;28;20054;-73
2022/10/31 01:50:00;;;;;;;4.63;3.05;;;17.20;74.90;;;;;;5034082;28;20057;-74
2022/10/31 01:52:28;;;;;;;4.13;2.80;;;17.20;74.40;;;;;;5033518;28;20479;-72
2022/10/31 01:54:57;;;;;;;3.80;3.00;;;17.20;74.40;;;;;;5020768;28;20088;-72
2022/10/31 01:57:24;;;;;;;4.38;3.30;;;17.20;74.40;;;;;;5047253;28;20054;-73
2022/10/31 01:59:52;;;;;;;3.95;2.80;;;17.20;74.40;;;;;;5015220;28;20060;-72
2022/10/31 02:02:18;;;;;;;4.10;3.05;;;17.10;74.30;;;;;;5030448;28;20045;-72
2022/10/31 02:04:45;;;;;;;4.40;3.40;;;17.10;74.30;;;;;;5030771;28;20061;-72
2022/10/31 02:07:15;;;;;;;4.78;3.17;;;17.20;74.40;;;;;;5031683;28;20056;-72
2022/10/31 02:09:42;;;;;;;3.90;2.80;;;17.20;74.30;;;;;;5032206;28;20055;-72
2022/10/31 02:12:10;;;;;;;5.13;2.97;;;17.20;74.40;;;;;;5034435;28;20487;-72
2022/10/31 02:14:36;;;;;;;4.25;3.10;;;17.10;74.30;;;;;;5035452;28;20063;-72
2022/10/31 02:17:03;;;;;;;4.15;3.00;;;17.20;74.40;;;;;;5035662;28;20083;-72
2022/10/31 02:19:34;;;;;;;4.45;2.88;;;17.10;74.40;;;;;;5034846;28;20060;-72
2022/10/31 02:22:03;;;;;;;4.40;3.00;;;17.10;74.30;;;;;;5034974;28;20059;-71
2022/10/31 02:24:46;;;;;;;6.05;2.95;;;17.10;74.30;;;;;;5018961;28;20058;-72
2022/10/31 02:27:20;;;;;;;5.05;3.00;;;17.10;74.20;;;;;;5031589;28;20061;-71
2022/10/31 02:30:04;;;;;;;4.35;3.13;;;17.10;74.30;;;;;;5031344;28;20060;-72
2022/10/31 02:32:39;;;;;;;3.70;2.85;;;17.10;74.30;;;;;;5031327;28;20053;-72
2022/10/31 02:35:09;;;;;;;4.57;3.10;;;17.10;74.40;;;;;;5031635;28;20092;-72
2022/10/31 02:37:38;;;;;;;4.15;3.00;;;17.10;74.30;;;;;;5031779;28;20434;-72
2022/10/31 02:40:10;;;;;;;3.95;2.97;;;17.10;74.30;;;;;;5015646;28;20564;-72
2022/10/31 02:42:40;;;;;;;4.07;3.00;;;17.10;74.30;;;;;;5030987;28;20046;-72
2022/10/31 02:45:09;;;;;;;4.65;3.30;;;17.10;74.30;;;;;;5015491;28;20049;-72
2022/10/31 02:47:38;;;;;;;4.85;2.97;;;17.10;74.30;;;;;;5031040;28;20058;-72
2022/10/31 02:50:07;;;;;;;5.22;3.25;;;17.10;74.20;;;;;;5030988;28;20487;-72
2022/10/31 02:52:34;;;;;;;4.10;3.00;;;17.10;74.20;;;;;;5015338;28;20399;-72
2022/10/31 02:55:10;;;;;;;5.00;2.97;;;16.30;75.60;;;;;;5016763;28;20045;-72
2022/10/31 02:57:37;;;;;;;4.85;3.10;;;17.10;74.20;;;;;;5030355;28;20060;-71
2022/10/31 03:00:05;;;;;;;4.35;3.03;;;17.10;74.20;;;;;;5014643;28;20054;-72
2022/10/31 03:02:42;;;;;;;4.55;3.10;;;17.00;74.20;;;;;;5030929;28;20050;-72
2022/10/31 03:05:36;;;;;;;4.13;2.85;;;17.10;74.20;;;;;;5030827;28;20070;-72
2022/10/31 03:08:06;;;;;;;5.43;3.17;;;17.10;74.00;;;;;;5030512;28;20065;-72
2022/10/31 03:10:37;;;;;;;4.00;3.00;;;17.00;74.20;;;;;;5013682;28;20058;-72
2022/10/31 03:13:08;;;;;;;4.70;3.28;;;17.00;74.10;;;;;;5042719;28;20061;-72
2022/10/31 03:15:36;;;;;;;4.07;3.28;;;17.00;74.10;;;;;;5014891;28;20142;-72
2022/10/31 03:18:06;;;;;;;3.65;2.83;;;17.00;74.10;;;;;;5047194;28;20058;-72
2022/10/31 03:20:35;;;;;;;4.05;2.97;;;17.00;74.00;;;;;;5013363;28;20143;-72
2022/10/31 03:23:02;;;;;;;5.53;3.03;;;17.00;74.10;;;;;;5046747;28;20060;-73
2022/10/31 03:25:29;;;;;;;4.55;3.40;;;17.00;74.00;;;;;;5046572;28;20495;-72
2022/10/31 03:27:55;;;;;;;3.70;2.85;;;17.00;74.00;;;;;;5013746;28;20084;-72
2022/10/31 03:30:22;;;;;;;4.30;3.08;;;17.00;74.00;;;;;;5013230;28;20054;-72
2022/10/31 03:32:50;;;;;;;4.55;3.20;;;17.00;74.00;;;;;;5013192;28;20414;-72
2022/10/31 03:35:20;;;;;;;3.70;3.17;;;17.00;74.00;;;;;;5013194;28;20056;-72
2022/10/31 03:37:46;;;;;;;5.00;3.47;;;17.00;74.00;;;;;;5013312;28;20054;-72
2022/10/31 03:40:13;;;;;;;4.00;2.97;;;17.00;74.00;;;;;;5029490;28;20058;-72
2022/10/31 03:42:43;;;;;;;4.15;3.30;;;17.00;73.90;;;;;;5032687;28;20056;-73
2022/10/31 03:45:13;;;;;;;5.32;2.97;;;17.00;73.90;;;;;;5032304;28;20456;-72
2022/10/31 03:47:39;;;;;;;4.20;3.10;;;17.00;73.90;;;;;;5033000;28;20510;-72
2022/10/31 03:50:07;;;;;;;3.83;2.88;;;17.00;73.90;;;;;;5033729;28;20050;-72
2022/10/31 03:52:37;;;;;;;3.10;2.40;;;17.00;73.90;;;;;;5032252;28;20059;-71
2022/10/31 03:55:06;;;;;;;5.25;3.17;;;17.00;73.90;;;;;;5033112;28;20060;-72
2022/10/31 03:57:34;;;;;;;4.10;3.10;;;17.00;73.90;;;;;;5029461;28;20062;-72
2022/10/31 04:00:02;;;;;;;3.83;3.05;;;16.90;73.80;;;;;;5013556;28;20046;-72
2022/10/31 04:02:31;;;;;;;4.57;3.10;;;16.90;73.80;;;;;;5012919;28;20475;-72
2022/10/31 04:04:57;;;;;;;3.58;2.88;;;16.90;73.80;;;;;;5013833;28;20049;-72
2022/10/31 04:07:24;;;;;;;4.10;2.95;;;16.90;73.80;;;;;;5029266;28;20054;-71
2022/10/31 04:09:52;;;;;;;4.40;3.30;;;16.90;74.30;;;;;;5028905;28;20060;-72
2022/10/31 04:12:19;;;;;;;4.55;2.97;;;16.90;73.80;;;;;;5044663;28;20487;-72
2022/10/31 04:14:47;;;;;;;5.85;3.22;;;16.90;73.80;;;;;;5013822;28;20042;-72
2022/10/31 04:17:14;;;;;;;4.47;3.10;;;16.90;73.70;;;;;;5028254;28;20054;-72
2022/10/31 04:19:41;;;;;;;3.20;2.60;;;16.90;73.70;;;;;;5028224;28;20055;-72
2022/10/31 04:22:08;;;;;;;5.57;3.10;;;16.90;73.70;;;;;;5044377;28;20064;-72
2022/10/31 04:24:35;;;;;;;3.72;2.90;;;16.90;73.70;;;;;;5016224;28;20079;-72
2022/10/31 04:27:03;;;;;;;4.45;3.05;;;16.90;73.70;;;;;;5012561;28;20057;-72
2022/10/31 04:29:29;;;;;;;4.60;3.20;;;16.90;73.60;;;;;;5012071;28;20060;-72
2022/10/31 04:31:56;;;;;;;3.90;3.00;;;16.90;73.60;;;;;;5011845;28;20060;-72
2022/10/31 04:34:23;;;;;;;4.35;3.20;;;16.90;73.60;;;;;;5012116;28;20064;-72
2022/10/31 04:36:49;;;;;;;3.42;2.88;;;16.90;73.60;;;;;;5012218;28;20384;-72
2022/10/31 04:39:16;;;;;;;4.35;3.00;;;16.90;73.60;;;;;;5016600;28;20049;-72
2022/10/31 04:41:43;;;;;;;3.47;2.80;;;16.90;73.60;;;;;;5031577;28;20057;-72
2022/10/31 04:44:11;;;;;;;3.85;3.05;;;16.90;73.60;;;;;;5031560;28;20059;-71
2022/10/31 04:46:37;;;;;;;4.13;2.80;;;16.90;73.50;;;;;;5031804;28;20083;-72
2022/10/31 04:49:05;;;;;;;3.83;2.88;;;16.80;73.50;;;;;;5031559;28;20055;-72
2022/10/31 04:51:31;;;;;;;4.20;3.00;;;16.80;73.40;;;;;;5031241;28;20540;-72
2022/10/31 04:53:58;;;;;;;3.75;2.80;;;16.80;73.50;;;;;;5027708;28;20054;-72
2022/10/31 04:56:25;;;;;;;3.85;2.70;;;16.80;73.40;;;;;;5012519;28;20050;-72
2022/10/31 04:58:51;;;;;;;3.50;2.90;;;16.80;73.40;;;;;;5011582;28;20050;-72
2022/10/31 05:01:19;;;;;;;6.05;2.70;;;16.80;73.40;;;;;;5012952;28;20419;-72
2022/10/31 05:03:46;;;;;;;4.25;2.78;;;16.80;73.40;;;;;;5012863;28;20056;-72
2022/10/31 05:06:13;;;;;;;3.78;2.60;;;16.80;73.30;;;;;;5011774;28;20072;-72
2022/10/31 05:08:39;;;;;;;3.35;2.60;;;16.80;73.30;;;;;;5017656;28;20386;-72
2022/10/31 05:11:06;;;;;;;3.13;2.30;;;16.80;73.30;;;;;;5030839;28;20053;-72
2022/10/31 05:13:33;;;;;;;3.05;2.40;;;16.80;73.30;;;;;;5031089;28;20670;-72
2022/10/31 05:16:00;;;;;;;3.10;2.63;;;16.80;73.30;;;;;;5032527;28;20055;-72
2022/10/31 05:18:28;;;;;;;2.72;2.30;;;16.80;73.30;;;;;;5031317;28;20053;-72
2022/10/31 05:20:54;;;;;;;2.95;2.40;;;16.80;73.20;;;;;;5031100;28;20057;-73
2022/10/31 05:23:21;;;;;;;3.05;2.53;;;16.80;73.20;;;;;;5028520;28;20042;-72
2022/10/31 05:25:48;;;;;;;3.17;2.47;;;16.80;73.20;;;;;;5016187;28;20046;-72
2022/10/31 05:28:14;;;;;;;4.07;2.30;;;16.80;73.20;;;;;;5015242;28;20062;-72
2022/10/31 05:30:41;;;;;;;3.58;2.80;;;16.80;73.10;;;;;;5014892;28;20061;-72
2022/10/31 05:33:08;;;;;;;3.67;2.53;;;16.80;73.10;;;;;;5015205;28;20050;-72
2022/10/31 05:35:36;;;;;;;3.50;2.60;;;16.80;73.10;;;;;;5016294;28;20053;-72
2022/10/31 05:38:03;;;;;;;3.25;2.45;;;16.80;73.10;;;;;;5021614;28;20053;-72
2022/10/31 05:40:29;;;;;;;3.20;2.25;;;16.80;73.10;;;;;;5034206;28;20053;-72
2022/10/31 05:42:58;;;;;;;3.30;2.50;;;16.80;73.10;;;;;;5034779;28;20498;-72
2022/10/31 05:45:24;;;;;;;4.00;2.67;;;16.80;73.00;;;;;;5034692;28;20136;-72
2022/10/31 05:47:52;;;;;;;3.83;2.28;;;16.70;73.00;;;;;;5035937;28;20409;-72
2022/10/31 05:50:19;;;;;;;2.60;2.35;;;16.80;73.00;;;;;;5034280;28;20092;-72
2022/10/31 05:52:47;;;;;;;2.40;2.05;;;16.70;72.90;;;;;;5027214;28;20046;-72
2022/10/31 05:55:13;;;;;;;2.65;2.15;;;16.70;72.90;;;;;;5015826;28;20058;-72
2022/10/31 05:57:40;;;;;;;2.58;1.92;;;16.70;72.90;;;;;;5014580;28;20070;-71
2022/10/31 06:00:08;;;;;;;2.45;2.08;;;16.70;72.80;;;;;;5031130;28;20479;-72
2022/10/31 06:02:35;;;;;;;2.40;1.98;;;16.70;72.80;;;;;;5014716;28;20054;-72
2022/10/31 06:05:02;;;;;;;3.05;2.10;;;16.70;72.80;;;;;;5015380;28;20403;-72
2022/10/31 06:07:32;;;;;;;2.65;2.10;;;16.70;72.80;;;;;;5023878;28;20059;-72
2022/10/31 06:10:00;;;;;;;2.45;1.90;;;16.70;72.80;;;;;;5034165;28;20071;-72
2022/10/31 06:12:27;;;;;;;3.13;2.10;;;16.80;72.80;;;;;;5034033;28;20050;-72
2022/10/31 06:14:53;;;;;;;2.33;2.03;;;16.70;72.70;;;;;;5034320;28;20418;-72
2022/10/31 06:17:20;;;;;;;2.55;2.00;;;16.70;72.70;;;;;;5033995;28;20058;-72
2022/10/31 06:19:47;;;;;;;3.60;2.17;;;16.70;72.70;;;;;;5034875;28;20049;-72
2022/10/31 06:22:13;;;;;;;2.40;2.00;;;16.70;72.70;;;;;;5024532;28;20058;-72
2022/10/31 06:24:40;;;;;;;2.35;1.77;;;16.60;72.60;;;;;;5014935;28;20400;-72
2022/10/31 06:27:08;;;;;;;2.13;1.60;;;16.60;72.60;;;;;;5014985;28;20046;-72
2022/10/31 06:29:35;;;;;;;2.85;2.10;;;16.60;72.60;;;;;;5014823;28;20513;-72
2022/10/31 06:32:02;;;;;;;2.20;1.80;;;16.60;72.60;;;;;;5013129;28;20050;-72
2022/10/31 06:34:29;;;;;;;2.80;1.90;;;16.60;72.50;;;;;;5012367;28;20060;-72
2022/10/31 06:36:56;;;;;;;2.65;1.70;;;16.60;72.50;;;;;;5024148;28;20502;-72
2022/10/31 06:39:22;;;;;;;3.58;1.85;;;16.60;72.50;;;;;;5033200;28;20056;-72
2022/10/31 06:41:49;;;;;;;2.60;1.73;;;16.60;72.50;;;;;;5034141;28;20050;-72
2022/10/31 06:44:17;;;;;;;2.10;1.70;;;16.60;72.40;;;;;;5033073;28;20479;-72
2022/10/31 06:46:44;;;;;;;2.10;1.70;;;16.60;72.40;;;;;;5034007;28;20059;-71
2022/10/31 06:49:10;;;;;;;2.10;1.67;;;16.60;72.40;;;;;;5032816;28;20061;-72
2022/10/31 06:51:37;;;;;;;2.10;1.80;;;16.60;72.40;;;;;;5020012;28;20064;-72
2022/10/31 06:54:04;;;;;;;2.35;1.85;;;16.60;72.30;;;;;;5012838;28;20094;-73
2022/10/31 06:56:31;;;;;;;2.13;1.67;;;16.60;72.30;;;;;;5033671;28;20055;-72
2022/10/31 06:58:58;;;;;;;2.45;1.80;;;16.60;72.30;;;;;;5033965;28;20079;-72
2022/10/31 07:01:26;;;;;;;2.28;1.77;;;16.60;72.30;;;;;;5032652;28;20059;-72
2022/10/31 07:03:53;;;;;;;2.30;1.80;;;16.60;72.30;;;;;;5033089;28;20410;-72
2022/10/31 07:06:19;;;;;;;2.30;1.85;;;16.60;72.30;;;;;;5025155;28;20046;-72
2022/10/31 07:08:46;;;;;;;3.78;2.10;;;16.60;72.30;;;;;;5012925;28;20053;-72
2022/10/31 07:11:12;;;;;;;2.33;1.73;;;16.50;72.20;;;;;;5025339;28;20056;-73
2022/10/31 07:13:39;;;;;;;3.33;1.80;;;16.60;72.20;;;;;;5030554;28;20401;-72
2022/10/31 07:16:11;;;;;;;2.95;1.70;;;16.60;72.20;;;;;;5033570;28;20071;-72
2022/10/31 07:18:39;;;;;;;2.22;1.63;;;16.50;72.20;;;;;;5032852;28;20085;-72
2022/10/31 07:21:06;;;;;;;1.65;1.42;;;16.50;72.30;;;;;;5033502;28;20049;-72
2022/10/31 07:23:33;;;;;;;2.40;1.80;;;16.50;72.40;;;;;;5017608;28;20045;-73
2022/10/31 07:26:00;;;;;;;3.50;1.95;;;16.50;72.50;;;;;;5054955;28;20400;-72
2022/10/31 07:28:27;;;;;;;2.22;1.50;;;16.50;72.60;;;;;;5032673;28;20135;-72
2022/10/31 07:30:54;;;;;;;2.60;1.65;;;16.50;72.60;;;;;;5032180;28;20059;-72
2022/10/31 07:33:20;;;;;;;3.20;1.88;;;16.50;72.70;;;;;;5014354;28;20050;-72
2022/10/31 07:35:48;;;;;;;2.45;1.80;;;16.60;72.80;;;;;;5029193;28;20526;-72
2022/10/31 07:38:15;;;;;;;2.88;1.60;;;16.60;72.80;;;;;;5013356;28;20054;-72
2022/10/31 07:40:42;;;;;;;3.03;1.70;;;16.60;72.70;;;;;;5042935;28;20058;-72
2022/10/31 07:43:09;;;;;;;2.42;1.80;;;16.70;72.80;;;;;;5045303;28;20133;-72
2022/10/31 07:45:36;;;;;;;4.30;1.92;;;16.70;72.80;;;;;;5013087;28;20406;-72
2022/10/31 07:48:03;;;;;;;2.60;1.70;;;16.70;72.70;;;;;;5011989;28;20140;-72
2022/10/31 07:50:31;;;;;;;4.00;1.85;;;16.80;72.70;;;;;;5011436;28;20061;-72
2022/10/31 07:53:02;;;;;;;3.80;1.88;;;16.80;72.70;;;;;;5045067;28;20054;-72
2022/10/31 07:55:30;;;;;;;1.75;1.55;;;16.80;72.60;;;;;;5054625;28;20411;-72
2022/10/31 07:57:57;;;;;;;2.40;1.60;;;16.80;72.60;;;;;;5040909;28;20061;-72
2022/10/31 08:00:24;;;;;;;4.03;1.50;;;16.90;72.60;;;;;;5040371;28;20052;-72
2022/10/31 08:02:59;;;;;;;6.32;1.60;;;16.90;72.50;;;;;;5041888;28;20051;-72
2022/10/31 08:05:26;;;;;;;2.25;1.83;;;16.90;72.40;;;;;;5042030;28;20132;-72
2022/10/31 08:07:53;;;;;;;2.47;1.90;;;16.90;72.40;;;;;;5035902;28;20060;-72
2022/10/31 08:10:21;;;;;;;2.05;1.52;;;17.00;72.40;;;;;;5040729;28;20041;-72
2022/10/31 08:12:48;;;;;;;2.67;1.50;;;17.00;72.40;;;;;;5043347;28;20056;-72
2022/10/31 08:15:15;;;;;;;1.90;1.70;;;17.00;72.30;;;;;;5051436;28;20438;-71
2022/10/31 08:17:41;;;;;;;2.60;1.40;;;17.00;72.30;;;;;;5032914;28;20063;-72
2022/10/31 08:20:09;;;;;;;2.95;1.50;;;17.00;72.20;;;;;;5036405;28;20054;-71
2022/10/31 08:22:36;;;;;;;2.60;1.40;;;17.10;72.20;;;;;;5024532;28;20049;-71
2022/10/31 08:25:02;;;;;;;2.10;1.45;;;17.10;72.20;;;;;;5029052;28;20057;-72
2022/10/31 08:27:31;;;;;;;2.95;1.50;;;17.10;72.10;;;;;;5051132;28;20561;-72
2022/10/31 08:29:58;;;;;;;2.00;1.40;;;17.20;72.10;;;;;;5034059;28;20057;-73
2022/10/31 08:32:24;;;;;;;1.50;1.30;;;17.20;72.10;;;;;;5035024;28;20082;-72
2022/10/31 08:34:51;;;;;;;1.52;1.30;;;17.20;72.10;;;;;;5041139;28;20041;-73
2022/10/31 08:37:19;;;;;;;1.48;1.38;;;17.20;72.00;;;;;;5040198;28;20469;-73
2022/10/31 08:39:46;;;;;;;2.60;1.52;;;17.20;72.00;;;;;;5039810;28;20383;-73
2022/10/31 08:42:13;;;;;;;1.63;1.40;;;17.30;71.90;;;;;;5041369;28;20483;-72
2022/10/31 08:44:41;;;;;;;1.60;1.40;;;17.30;71.80;;;;;;5027061;28;20405;-73
2022/10/31 08:47:08;;;;;;;1.70;1.40;;;17.30;71.80;;;;;;5030295;28;20049;-72
2022/10/31 08:49:34;;;;;;;2.40;1.45;;;17.30;71.70;;;;;;5032110;28;20053;-72
2022/10/31 08:52:01;;;;;;;1.77;1.30;;;17.40;71.70;;;;;;5031765;28;20053;-72
2022/10/31 08:54:28;;;;;;;2.03;1.50;;;17.40;71.70;;;;;;5030522;28;20128;-71
2022/10/31 08:56:55;;;;;;;2.75;1.70;;;17.40;71.60;;;;;;5030292;28;20063;-71
2022/10/31 08:59:23;;;;;;;2.20;1.50;;;17.40;71.60;;;;;;5031318;28;20042;-71
2022/10/31 09:01:51;;;;;;;2.97;1.60;;;17.50;71.70;;;;;;5030561;28;20065;-72
2022/10/31 09:04:17;;;;;;;2.40;1.70;;;17.40;71.60;;;;;;5030743;28;20049;-72
2022/10/31 09:06:44;;;;;;;4.03;1.67;;;17.50;71.70;;;;;;5031786;28;20049;-71
2022/10/31 09:09:11;;;;;;;3.60;1.85;;;17.50;71.80;;;;;;5031625;28;20055;-71
2022/10/31 09:11:37;;;;;;;3.65;1.65;;;17.50;71.70;;;;;;5030549;28;20109;-72
2022/10/31 09:14:04;;;;;;;2.92;1.88;;;17.50;71.70;;;;;;5013138;28;20056;-71
2022/10/31 09:16:31;;;;;;;4.65;2.03;;;17.50;71.70;;;;;;5026090;28;20491;-72
2022/10/31 09:18:59;;;;;;;6.75;2.22;;;17.50;71.70;;;;;;5030009;28;20053;-72
2022/10/31 09:21:26;;;;;;;4.07;2.05;;;17.50;71.70;;;;;;5030097;28;20049;-71
2022/10/31 09:23:53;;;;;;;12.52;2.20;;;17.50;71.70;;;;;;5026918;28;20064;-72
2022/10/31 09:26:20;;;;;;;12.35;2.22;;;17.50;71.70;;;;;;5026805;28;20053;-71
2022/10/31 09:28:47;;;;;;;8.57;3.40;;;17.50;71.70;;;;;;5030307;28;20075;-71
2022/10/31 09:31:13;;;;;;;10.20;2.90;;;17.50;72.20;;;;;;5028517;28;20064;-71
2022/10/31 09:33:41;;;;;;;12.43;3.10;;;17.50;71.60;;;;;;5028789;28;20071;-71
2022/10/31 09:36:10;;;;;;;19.90;3.60;;;17.50;71.60;;;;;;5031333;28;20053;-71
2022/10/31 09:38:36;;;;;;;8.63;3.22;;;17.50;71.60;;;;;;5031670;28;20053;-71
2022/10/31 09:41:08;;;;;;;10.40;3.00;;;17.50;71.60;;;;;;5028636;28;20111;-71
2022/10/31 09:43:38;;;;;;;6.57;2.55;;;17.40;71.50;;;;;;5031491;28;20148;-71
2022/10/31 09:46:08;;;;;;;10.77;2.90;;;17.40;71.50;;;;;;5031301;28;20595;-71
2022/10/31 09:48:47;;;;;;;6.75;2.95;;;17.40;71.50;;;;;;5031639;28;20140;-71
2022/10/31 09:51:17;;;;;;;6.75;3.13;;;17.50;71.50;;;;;;5030144;28;20085;-71
2022/10/31 09:53:49;;;;;;;9.88;3.30;;;17.40;71.50;;;;;;5030034;28;20049;-71
2022/10/31 09:56:17;;;;;;;8.85;3.08;;;17.40;71.50;;;;;;5028683;28;20057;-71
2022/10/31 09:58:45;;;;;;;9.88;3.20;;;17.40;71.60;;;;;;5030542;28;20543;-72
2022/10/31 10:01:20;;;;;;;7.03;3.00;;;17.40;71.60;;;;;;5031347;28;20064;-72
2022/10/31 10:03:47;;;;;;;;;;;17.30;71.60;;;;;;5030622;28;20503;-72
2022/10/31 10:06:17;;;;;;;10.90;3.20;;;17.30;71.60;;;;;;5031411;28;19943;-72
2022/10/31 10:08:44;;;;;;;8.70;3.00;;;17.30;71.90;;;;;;5030215;28;20410;-72
2022/10/31 10:11:23;;;;;;;9.57;3.58;;;17.30;71.90;;;;;;5021118;28;20064;-72
2022/10/31 10:13:59;;;;;;;9.95;3.47;;;17.30;71.90;;;;;;5014700;28;20529;-71
2022/10/31 10:16:38;;;;;;;10.98;4.00;;;17.30;72.00;;;;;;5013879;28;20503;-71
2022/10/31 10:19:13;;;;;;;9.40;3.50;;;17.30;72.00;;;;;;5030382;28;20505;-72
2022/10/31 10:21:46;;;;;;;7.72;4.03;;;17.30;72.10;;;;;;5030199;28;20061;-72
2022/10/31 10:24:31;;;;;;;9.45;3.70;;;17.30;72.20;;;;;;5013469;28;20053;-72
2022/10/31 10:27:02;;;;;;;9.60;3.90;;;17.20;72.10;;;;;;5033616;28;20053;-72
2022/10/31 10:29:32;;;;;;;10.18;3.38;;;17.20;72.20;;;;;;5034093;28;20055;-72
2022/10/31 10:31:59;;;;;;;9.32;3.67;;;17.20;72.30;;;;;;5032830;28;20064;-71
2022/10/31 10:34:28;;;;;;;10.38;3.58;;;17.20;72.30;;;;;;5033172;28;20053;-71
2022/10/31 10:36:57;;;;;;;6.00;3.47;;;17.20;72.30;;;;;;5016954;28;20059;-72
2022/10/31 10:39:26;;;;;;;8.18;3.85;;;17.20;72.30;;;;;;5026989;28;20410;-72
2022/10/31 10:47:38;;;;;;;7.20;3.20;;;17.20;72.40;;;;;;5033290;28;20514;-73
2022/10/31 10:50:08;;;;;;;10.45;3.28;;;17.20;72.70;;;;;;5041608;28;20059;-73
2022/10/31 10:52:38;;;;;;;11.27;3.75;;;17.10;72.40;;;;;;5043207;28;20049;-73
2022/10/31 10:55:09;;;;;;;7.47;3.50;;;17.20;72.50;;;;;;5040626;28;20475;-73
2022/10/31 10:57:48;;;;;;;7.88;3.55;;;17.20;72.50;;;;;;5041390;28;20604;-73
2022/10/31 11:00:20;;;;;;;7.25;3.38;;;17.20;72.40;;;;;;5040414;28;20176;-73
2022/10/31 11:02:47;;;;;;;8.93;3.13;;;17.20;72.50;;;;;;5042073;28;20059;-73
2022/10/31 11:05:19;;;;;;;7.28;3.13;;;17.20;72.50;;;;;;5042587;28;20059;-73
2022/10/31 11:07:47;;;;;;;8.85;3.65;;;17.20;72.50;;;;;;5042440;28;20178;-73
2022/10/31 11:10:14;;;;;;;9.15;4.00;;;17.20;72.50;;;;;;5040239;28;20061;-72
2022/10/31 11:12:41;;;;;;;8.68;3.33;;;17.20;72.50;;;;;;5047553;28;20124;-72
2022/10/31 11:15:17;;;;;;;7.35;3.75;;;17.20;72.50;;;;;;5047225;28;20063;-72
2022/10/31 11:17:48;;;;;;;9.85;4.03;;;17.20;72.50;;;;;;5041066;28;20049;-72
2022/10/31 11:20:28;;;;;;;6.75;3.38;;;17.20;72.40;;;;;;5038396;28;20045;-72
2022/10/31 11:23:04;;;;;;;7.97;3.20;;;17.20;72.40;;;;;;5040399;28;20132;-72
2022/10/31 11:25:30;;;;;;;5.38;3.08;;;17.20;72.30;;;;;;5041327;28;20055;-72
2022/10/31 11:28:01;;;;;;;6.80;3.20;;;17.20;72.30;;;;;;5039443;28;20045;-71
2022/10/31 11:30:28;;;;;;;5.80;3.17;;;17.20;72.20;;;;;;5042926;28;20057;-71
2022/10/31 11:32:54;;;;;;;6.43;3.65;;;17.20;72.20;;;;;;5040024;28;20053;-71
2022/10/31 11:35:21;;;;;;;6.85;3.00;;;17.30;72.20;;;;;;5040501;28;20410;-72
2022/10/31 11:37:49;;;;;;;7.00;3.03;;;17.20;72.10;;;;;;5029360;28;20132;-71
2022/10/31 11:40:18;;;;;;;6.50;3.15;;;17.30;72.20;;;;;;5018032;28;20053;-74
2022/10/31 11:42:45;;;;;;;6.93;3.30;;;17.30;72.20;;;;;;5012185;28;20065;-72
2022/10/31 11:45:16;;;;;;;5.18;3.00;;;17.30;72.10;;;;;;5024480;28;20067;-72
2022/10/31 11:47:44;;;;;;;5.63;3.13;;;17.30;72.10;;;;;;5022143;28;20138;-74
2022/10/31 11:50:12;;;;;;;4.82;2.47;;;17.30;72.00;;;;;;5012650;28;20161;-73
2022/10/31 11:52:40;;;;;;;6.72;3.42;;;17.30;72.00;;;;;;5012351;28;20533;-73
2022/10/31 11:55:18;;;;;;;6.93;3.40;;;17.30;72.10;;;;;;5013880;28;20054;-73
2022/10/31 11:57:46;;;;;;;6.07;3.20;;;17.30;72.00;;;;;;5013885;28;20198;-73
2022/10/31 12:00:22;;;;;;;7.60;3.10;;;17.40;72.20;;;;;;5012838;28;20060;-73
2022/10/31 12:02:48;;;;;;;8.35;3.28;;;17.40;72.20;;;;;;5012961;28;20056;-73
2022/10/31 12:05:19;;;;;;;6.00;2.75;;;17.40;72.20;;;;;;5012851;28;20052;-73
2022/10/31 12:07:46;;;;;;;7.10;3.10;;;17.40;72.30;;;;;;5028809;28;20053;-73
2022/10/31 12:10:13;;;;;;;6.65;3.20;;;17.40;72.80;;;;;;5013480;28;20124;-73
2022/10/31 12:12:55;;;;;;;4.22;2.92;;;17.40;72.30;;;;;;5012110;28;20049;-72
2022/10/31 12:15:32;;;;;;;5.80;2.78;;;17.40;72.20;;;;;;5028076;28;20052;-73
2022/10/31 12:18:07;;;;;;;4.70;3.00;;;17.40;72.20;;;;;;5024673;28;20113;-72
2022/10/31 12:20:38;;;;;;;6.65;3.10;;;17.40;72.20;;;;;;5032199;28;20171;-73
2022/10/31 12:23:10;;;;;;;5.57;3.03;;;17.30;72.20;;;;;;5031037;28;20064;-72
2022/10/31 12:25:40;;;;;;;4.78;2.75;;;17.40;72.20;;;;;;5031331;28;20064;-72
2022/10/31 12:28:36;;;;;;;4.20;2.70;;;17.40;72.20;;;;;;5031358;28;20067;-72
2022/10/31 12:31:08;;;;;;;3.80;2.65;;;17.40;72.10;;;;;;5020878;28;20064;-72
2022/10/31 12:33:46;;;;;;;3.80;2.58;;;17.40;72.20;;;;;;5011018;28;20056;-73
2022/10/31 12:36:27;;;;;;;5.10;2.92;;;17.40;72.20;;;;;;5028426;28;20050;-73
2022/10/31 12:39:12;;;;;;;4.95;2.55;;;17.40;72.10;;;;;;5037949;28;20057;-73
2022/10/31 12:41:52;;;;;;;3.90;2.70;;;17.40;72.10;;;;;;5031388;28;20136;-74
2022/10/31 12:44:31;;;;;;;4.53;2.72;;;17.40;72.10;;;;;;5030401;28;20045;-72
2022/10/31 12:47:10;;;;;;;5.20;2.88;;;17.40;72.20;;;;;;5035650;28;20059;-73
2022/10/31 12:49:47;;;;;;;6.03;2.70;;;17.40;72.20;;;;;;5040950;28;20063;-72
2022/10/31 12:52:26;;;;;;;3.88;2.60;;;17.40;72.20;;;;;;5042394;28;20048;-72
2022/10/31 12:54:59;;;;;;;3.80;2.47;;;17.40;72.30;;;;;;5030535;28;20053;-73
2022/10/31 12:57:28;;;;;;;4.55;2.50;;;17.40;72.30;;;;;;5030636;28;20057;-72
2022/10/31 12:59:58;;;;;;;4.25;2.50;;;17.40;72.30;;;;;;5030706;28;20132;-72